Time;durP1;ratioP1;P1;durP2;ratioP2;P2;SDS_P1;SDS_P2;PMS_P1;PMS_P2;Temp;Humidity;BMP_temperature;BMP_pressure;BME280_temperature;BME280_humidity;BME280_pressure;Samples;Min_cycle;Max_cycle;Signal;HPM_P1;HPM_P2
2023/03/06 00:00:32;;;;;;;;;;;;;;;12.14;34.04;98491.22;4510912;31;33906;-85
2023/03/06 00:02:59;;;;;;;;;;;;;;;11.88;34.17;98499.09;4513405;31;33577;-87
2023/03/06 00:05:26;;;;;;;;;;;;;;;11.96;34.22;98499.09;4513157;31;33882;-86
2023/03/06 00:07:54;;;;;;;;;;;;;;;12.12;33.98;98494.69;4513529;31;34111;-84
2023/03/06 00:10:23;;;;;;;;;;;;;;;12.20;33.84;98495.53;4513724;31;34438;-86
2023/03/06 00:12:51;;;;;;;;;;;;;;;12.27;33.86;98504.16;4508835;31;33428;-85
2023/03/06 00:15:18;;;;;;;;;;;;;;;12.17;33.98;98490.34;4514693;31;33541;-85
2023/03/06 00:17:45;;;;;;;;;;;;;;;12.18;33.82;98489.47;4510344;31;35233;-85
2023/03/06 00:20:13;;;;;;;;;;;;;;;12.22;33.83;98493.78;4515510;31;34291;-86
2023/03/06 00:22:40;;;;;;;;;;;;;;;12.34;33.69;98493.72;4515636;31;33004;-84
2023/03/06 00:25:09;;;;;;;;;;;;;;;12.21;33.74;98486.00;4516065;31;34279;-82
2023/03/06 00:27:36;;;;;;;;;;;;;;;12.00;34.03;98487.81;4505673;31;33697;-82
2023/03/06 00:30:04;;;;;;;;;;;;;;;12.17;33.85;98478.22;4515783;31;35358;-85
2023/03/06 00:32:31;;;;;;;;;;;;;;;12.02;33.97;98486.09;4515249;31;33276;-85
2023/03/06 00:35:00;;;;;;;;;;;;;;;11.96;34.07;98477.44;4515953;31;34327;-85
2023/03/06 00:37:27;;;;;;;;;;;;;;;12.00;33.57;98476.56;4515798;31;34356;-84
2023/03/06 00:39:55;;;;;;;;;;;;;;;12.08;33.66;98480.84;4515826;31;34925;-83
2023/03/06 00:42:22;;;;;;;;;;;;;;;12.18;33.76;98477.34;4516118;31;33391;-86
2023/03/06 00:44:50;;;;;;;;;;;;;;;12.10;33.99;98471.31;4515538;31;34226;-83
2023/03/06 00:47:17;;;;;;;;;;;;;;;12.16;33.95;98479.09;4515505;31;35131;-82
2023/03/06 00:49:45;;;;;;;;;;;;;;;12.15;34.19;98472.16;4515562;31;34194;-83
2023/03/06 00:52:12;;;;;;;;;;;;;;;11.99;33.69;98474.84;4515551;31;33337;-87
2023/03/06 00:54:39;;;;;;;;;;;;;;;11.61;34.13;98475.78;4512120;31;34067;-84
2023/03/06 00:57:07;;;;;;;;;;;;;;;11.94;34.13;98472.25;4508808;31;33119;-86
2023/03/06 00:59:34;;;;;;;;;;;;;;;11.96;34.27;98465.31;4513694;31;33828;-84
2023/03/06 01:02:02;;;;;;;;;;;;;;;11.53;34.79;98468.03;4514117;31;32764;-84
2023/03/06 01:04:30;;;;;;;;;;;;;;;11.91;34.22;98449.75;4515062;31;34142;-86
2023/03/06 01:06:57;;;;;;;;;;;;;;;11.77;34.45;98448.91;4515537;31;34463;-85
2023/03/06 01:09:25;;;;;;;;;;;;;;;11.66;34.64;98448.94;4514301;31;34119;-83
2023/03/06 01:11:52;;;;;;;;;;;;;;;11.86;34.46;98454.13;4514971;31;34011;-87
2023/03/06 01:14:20;;;;;;;;;;;;;;;12.00;34.41;98451.44;4512984;31;34943;-83
2023/03/06 01:16:47;;;;;;;;;;;;;;;11.66;35.02;98453.28;4514343;31;33781;-84
2023/03/06 01:19:16;;;;;;;;;;;;;;;11.97;34.55;98456.69;4513795;31;34505;-87
2023/03/06 01:21:44;;;;;;;;;;;;;;;11.71;34.81;98455.88;4513488;31;33501;-83
2023/03/06 01:24:11;;;;;;;;;;;;;;;11.24;34.97;98447.31;4514203;31;34027;-84
2023/03/06 01:26:39;;;;;;;;;;;;;;;11.52;34.89;98445.53;4512892;31;34096;-83
2023/03/06 01:29:06;;;;;;;;;;;;;;;11.81;34.31;98441.97;4515272;31;33911;-83
2023/03/06 01:31:33;;;;;;;;;;;;;;;11.88;34.29;98441.09;4514745;31;33989;-82
2023/03/06 01:34:01;;;;;;;;;;;;;;;11.93;34.29;98440.25;4515056;31;33872;-86
2023/03/06 01:36:28;;;;;;;;;;;;;;;11.93;33.78;98439.34;4515161;31;34313;-83
2023/03/06 01:38:55;;;;;;;;;;;;;;;12.02;33.22;98436.72;4513473;31;34869;-82
2023/03/06 01:41:23;;;;;;;;;;;;;;;11.99;33.75;98428.94;4514329;31;33111;-84
2023/03/06 01:43:50;;;;;;;;;;;;;;;11.82;33.83;98426.41;4514678;31;33990;-85
2023/03/06 01:46:41;;;;;;;;;;;;;;;11.94;34.09;98435.91;4514449;31;35184;-84
2023/03/06 01:49:20;;;;;;;;;;;;;;;11.99;34.07;98431.53;4512045;31;34807;-81
2023/03/06 01:51:50;;;;;;;;;;;;;;;11.98;34.08;98428.97;4508605;31;33876;-83
2023/03/06 01:54:28;;;;;;;;;;;;;;;12.12;33.98;98428.03;4514411;31;34103;-83
2023/03/06 01:56:58;;;;;;;;;;;;;;;11.85;34.07;98425.53;4513553;31;32778;-86
2023/03/06 01:59:25;;;;;;;;;;;;;;;11.77;33.78;98420.34;4514683;31;33892;-86
2023/03/06 02:01:53;;;;;;;;;;;;;;;11.88;33.54;98428.97;4510924;31;33293;-82
2023/03/06 02:04:21;;;;;;;;;;;;;;;12.04;32.81;98424.56;4510385;31;34957;-81
2023/03/06 02:06:49;;;;;;;;;;;;;;;11.91;33.12;98431.56;4498497;31;34341;-83
2023/03/06 02:09:16;;;;;;;;;;;;;;;11.58;34.15;98429.94;4509909;31;34156;-86
2023/03/06 02:11:45;;;;;;;;;;;;;;;11.61;33.54;98421.28;4514237;31;33691;-87
2023/03/06 02:14:13;;;;;;;;;;;;;;;11.87;33.68;98423.81;4513760;31;34495;-86
2023/03/06 02:16:41;;;;;;;;;;;;;;;11.38;34.76;98430.00;4512836;31;34140;-84
2023/03/06 02:19:13;;;;;;;;;;;;;;;11.82;32.87;98420.31;4513359;31;34188;-82
2023/03/06 02:21:41;;;;;;;;;;;;;;;11.06;33.76;98430.06;4512154;31;33316;-86
2023/03/06 02:24:08;;;;;;;;;;;;;;;11.65;33.58;98421.25;4502844;31;33440;-84
2023/03/06 02:26:35;;;;;;;;;;;;;;;11.66;34.19;98419.50;4514132;31;34416;-84
2023/03/06 02:29:03;;;;;;;;;;;;;;;11.65;33.22;98413.47;4509954;31;34146;-85
2023/03/06 02:31:31;;;;;;;;;;;;;;;11.61;33.40;98414.34;4514497;31;33018;-83
2023/03/06 02:34:02;;;;;;;;;;;;;;;11.45;33.93;98417.88;4498182;31;33764;-84
2023/03/06 02:36:30;;;;;;;;;;;;;;;11.57;34.29;98414.38;4498763;31;35237;-84
2023/03/06 02:38:57;;;;;;;;;;;;;;;11.46;34.39;98417.00;4484586;31;34492;-87
2023/03/06 02:41:24;;;;;;;;;;;;;;;11.64;34.35;98410.88;4498852;31;33344;-85
2023/03/06 02:43:52;;;;;;;;;;;;;;;11.99;34.03;98417.69;4498640;31;34177;-86
2023/03/06 02:46:19;;;;;;;;;;;;;;;11.95;33.29;98416.84;4499506;31;34862;-82
2023/03/06 02:48:47;;;;;;;;;;;;;;;11.79;34.08;98420.34;4499684;31;34802;-85
2023/03/06 02:51:14;;;;;;;;;;;;;;;11.81;33.90;98416.00;4507189;31;33826;-84
2023/03/06 02:53:42;;;;;;;;;;;;;;;11.93;33.91;98422.06;4491705;31;34222;-85
2023/03/06 02:56:09;;;;;;;;;;;;;;;12.08;33.65;98423.69;4494162;31;37238;-84
2023/03/06 02:58:37;;;;;;;;;;;;;;;11.75;33.68;98422.09;4505751;31;34277;-82
2023/03/06 03:01:04;;;;;;;;;;;;;;;12.23;33.50;98422.75;4483230;31;34317;-86
2023/03/06 03:03:33;;;;;;;;;;;;;;;11.93;34.14;98415.97;4499222;31;34077;-85
2023/03/06 03:06:02;;;;;;;;;;;;;;;12.26;33.64;98416.66;4499199;31;34903;-86
2023/03/06 03:08:30;;;;;;;;;;;;;;;12.36;33.73;98413.16;4498757;31;34101;-86
2023/03/06 03:10:58;;;;;;;;;;;;;;;12.40;33.60;98409.66;4499036;31;34076;-82
2023/03/06 03:13:26;;;;;;;;;;;;;;;12.54;33.39;98417.34;4484307;31;32621;-87
2023/03/06 03:16:00;;;;;;;;;;;;;;;12.41;33.80;98411.38;4498186;31;34238;-84
2023/03/06 03:18:28;;;;;;;;;;;;;;;12.34;33.89;98420.94;4486272;31;34065;-85
2023/03/06 03:20:55;;;;;;;;;;;;;;;12.41;33.68;98408.78;4496135;31;33808;-84
2023/03/06 03:23:23;;;;;;;;;;;;;;;12.32;33.69;98406.25;4498702;31;33591;-86
2023/03/06 03:25:50;;;;;;;;;;;;;;;12.52;33.56;98417.38;4505272;31;34063;-83
2023/03/06 03:28:18;;;;;;;;;;;;;;;12.43;33.94;98414.84;4497205;31;34848;-82
2023/03/06 03:30:45;;;;;;;;;;;;;;;12.41;33.63;98407.03;4498974;31;32987;-84
2023/03/06 03:33:13;;;;;;;;;;;;;;;12.44;33.76;98408.75;4514625;31;34150;-83
2023/03/06 03:35:41;;;;;;;;;;;;;;;12.21;34.10;98403.72;4513137;31;34481;-82
2023/03/06 03:38:09;;;;;;;;;;;;;;;12.25;33.96;98409.75;4513434;31;34004;-84
2023/03/06 03:40:37;;;;;;;;;;;;;;;12.39;33.65;98407.94;4512799;31;33394;-84
2023/03/06 03:43:04;;;;;;;;;;;;;;;12.46;33.53;98399.19;4513528;31;33971;-85
2023/03/06 03:45:32;;;;;;;;;;;;;;;12.44;33.64;98405.31;4513001;31;35044;-82
2023/03/06 03:47:59;;;;;;;;;;;;;;;12.49;33.55;98401.78;4512747;31;34391;-84
2023/03/06 03:50:27;;;;;;;;;;;;;;;12.64;33.25;98398.19;4512247;31;33370;-86
2023/03/06 03:52:55;;;;;;;;;;;;;;;12.55;33.41;98393.09;4513389;31;34820;-85
2023/03/06 03:55:23;;;;;;;;;;;;;;;12.45;33.88;98402.69;4512460;31;35109;-83
2023/03/06 03:57:50;;;;;;;;;;;;;;;12.45;33.90;98397.47;4512985;31;34189;-83
2023/03/06 04:00:18;;;;;;;;;;;;;;;12.38;33.67;98401.00;4508144;31;33307;-83
2023/03/06 04:02:46;;;;;;;;;;;;;;;12.38;33.34;98395.78;4513378;31;35123;-86
2023/03/06 04:05:14;;;;;;;;;;;;;;;12.45;33.25;98391.41;4512011;31;34507;-83
2023/03/06 04:07:42;;;;;;;;;;;;;;;12.34;33.16;98391.50;4513990;31;33909;-84
2023/03/06 04:10:10;;;;;;;;;;;;;;;12.31;33.23;98394.09;4511894;31;34200;-83
2023/03/06 04:12:37;;;;;;;;;;;;;;;12.30;33.34;98394.97;4512551;31;33998;-85
2023/03/06 04:15:06;;;;;;;;;;;;;;;12.50;33.42;98400.94;4513582;31;33712;-83
2023/03/06 04:17:34;;;;;;;;;;;;;;;12.74;33.52;98405.06;4513729;31;33612;-86
2023/03/06 04:20:03;;;;;;;;;;;;;;;12.43;34.03;98401.84;4511991;31;33523;-86
2023/03/06 04:22:31;;;;;;;;;;;;;;;12.41;33.78;98401.84;4513021;31;34086;-82
2023/03/06 04:24:59;;;;;;;;;;;;;;;12.37;33.32;98405.31;4512766;31;34817;-84
2023/03/06 04:27:26;;;;;;;;;;;;;;;12.28;33.11;98400.19;4513172;31;34674;-87
2023/03/06 04:29:55;;;;;;;;;;;;;;;12.24;33.31;98392.44;4512755;31;33032;-83
2023/03/06 04:32:22;;;;;;;;;;;;;;;12.49;33.36;98386.19;4507616;31;34208;-85
2023/03/06 04:34:50;;;;;;;;;;;;;;;12.63;33.29;98391.28;4499780;31;34593;-84
2023/03/06 04:37:21;;;;;;;;;;;;;;;12.44;33.42;98390.56;4497221;31;34379;-84
2023/03/06 04:39:49;;;;;;;;;;;;;;;12.03;34.00;98402.06;4495744;31;34242;-84
2023/03/06 04:42:16;;;;;;;;;;;;;;;12.36;33.59;98395.81;4491553;31;34980;-86
2023/03/06 04:44:43;;;;;;;;;;;;;;;12.48;33.58;98391.41;4491283;31;35222;-86
2023/03/06 04:47:11;;;;;;;;;;;;;;;12.47;33.43;98390.53;4495421;31;33896;-86
2023/03/06 04:49:38;;;;;;;;;;;;;;;12.42;33.34;98392.28;4487960;31;34094;-84
2023/03/06 04:52:05;;;;;;;;;;;;;;;12.53;33.22;98390.47;4489866;31;34177;-83
2023/03/06 04:54:33;;;;;;;;;;;;;;;12.37;34.06;98388.88;4501338;31;35070;-84
2023/03/06 04:57:00;;;;;;;;;;;;;;;12.25;34.00;98378.56;4502092;31;34345;-84
2023/03/06 04:59:27;;;;;;;;;;;;;;;12.53;33.66;98385.28;4493605;31;33380;-82
2023/03/06 05:01:55;;;;;;;;;;;;;;;12.29;34.45;98390.66;4495849;31;34072;-83
2023/03/06 05:04:22;;;;;;;;;;;;;;;12.34;34.34;98387.16;4511405;31;34234;-86
2023/03/06 05:06:50;;;;;;;;;;;;;;;12.43;33.97;98388.84;4498257;31;34876;-83
2023/03/06 05:09:17;;;;;;;;;;;;;;;12.55;33.33;98386.16;4498618;31;34124;-86
2023/03/06 05:11:44;;;;;;;;;;;;;;;12.33;33.47;98389.78;4499504;31;33541;-85
2023/03/06 05:14:11;;;;;;;;;;;;;;;12.29;33.54;98393.25;4510153;31;34030;-84
2023/03/06 05:16:39;;;;;;;;;;;;;;;12.41;33.30;98395.78;4504447;31;34199;-83
2023/03/06 05:19:06;;;;;;;;;;;;;;;12.20;33.63;98389.00;4500278;31;34055;-82
2023/03/06 05:21:33;;;;;;;;;;;;;;;12.09;33.52;98383.00;4498550;31;34004;-81
2023/03/06 05:24:01;;;;;;;;;;;;;;;12.45;33.54;98392.28;4501178;31;34861;-86
2023/03/06 05:26:28;;;;;;;;;;;;;;;12.33;34.11;98392.37;4502620;31;35065;-86
2023/03/06 05:28:55;;;;;;;;;;;;;;;12.45;33.86;98381.88;4499036;31;33543;-83
2023/03/06 05:31:23;;;;;;;;;;;;;;;12.18;34.16;98389.00;4503656;31;33409;-83
2023/03/06 05:33:50;;;;;;;;;;;;;;;12.45;33.65;98387.06;4495976;31;34137;-84
2023/03/06 05:36:17;;;;;;;;;;;;;;;12.55;33.46;98386.16;4494238;31;34074;-86
2023/03/06 05:38:44;;;;;;;;;;;;;;;12.50;33.70;98382.72;4490078;31;34116;-83
2023/03/06 05:41:12;;;;;;;;;;;;;;;12.76;33.42;98389.44;4492119;31;34871;-85
2023/03/06 05:43:40;;;;;;;;;;;;;;;12.53;34.06;98387.88;4498229;31;35325;-84
2023/03/06 05:46:07;;;;;;;;;;;;;;;12.36;34.22;98387.16;4498491;31;34923;-86
2023/03/06 05:48:36;;;;;;;;;;;;;;;12.42;33.63;98387.09;4493252;31;33037;-87
2023/03/06 05:51:03;;;;;;;;;;;;;;;12.31;33.54;98386.31;4492933;31;34947;-83
2023/03/06 05:53:31;;;;;;;;;;;;;;;12.46;33.41;98388.78;4489732;31;34268;-83
2023/03/06 05:56:02;;;;;;;;;;;;;;;12.41;33.37;98388.84;4506228;31;34817;-84
2023/03/06 05:58:30;;;;;;;;;;;;;;;12.48;33.54;98392.25;4499208;31;33815;-85
2023/03/06 06:00:57;;;;;;;;;;;;;;;12.43;33.97;98398.38;4496325;31;33925;-86
2023/03/06 06:03:25;;;;;;;;;;;;;;;12.53;33.81;98395.69;4492797;31;35132;-86
2023/03/06 06:05:52;;;;;;;;;;;;;;;12.49;33.84;98387.91;4494404;31;33968;-85
2023/03/06 06:08:19;;;;;;;;;;;;;;;12.57;33.62;98392.19;4493096;31;33381;-86
2023/03/06 06:10:47;;;;;;;;;;;;;;;12.59;33.51;98392.19;4497051;31;34576;-84
2023/03/06 06:13:14;;;;;;;;;;;;;;;12.65;33.36;98390.41;4488939;31;34680;-84
2023/03/06 06:15:41;;;;;;;;;;;;;;;12.62;33.28;98385.22;4498654;31;34145;-83
2023/03/06 06:18:09;;;;;;;;;;;;;;;12.72;33.33;98398.13;4497909;31;34326;-84
2023/03/06 06:20:36;;;;;;;;;;;;;;;12.63;33.54;98402.53;4498315;31;34322;-83
2023/03/06 06:23:03;;;;;;;;;;;;;;;12.66;33.58;98401.66;4498838;31;33910;-82
2023/03/06 06:25:31;;;;;;;;;;;;;;;12.73;33.52;98410.25;4498916;31;33469;-84
2023/03/06 06:27:58;;;;;;;;;;;;;;;12.55;34.08;98409.53;4498606;31;33251;-82
2023/03/06 06:30:26;;;;;;;;;;;;;;;12.85;33.84;98418.84;4498724;31;33384;-81
2023/03/06 06:32:53;;;;;;;;;;;;;;;12.78;34.04;98411.09;4512941;31;34395;-84
2023/03/06 06:35:20;;;;;;;;;;;;;;;12.81;33.86;98409.34;4514481;31;34796;-83
2023/03/06 06:37:48;;;;;;;;;;;;;;;12.91;33.48;98412.72;4514737;31;33989;-84
2023/03/06 06:40:15;;;;;;;;;;;;;;;12.87;33.26;98411.00;4514644;31;34344;-83
2023/03/06 06:42:43;;;;;;;;;;;;;;;12.77;33.49;98409.41;4514878;31;34162;-82
2023/03/06 06:45:10;;;;;;;;;;;;;;;12.98;33.34;98403.13;4514883;31;34115;-82
2023/03/06 06:47:40;;;;;;;;;;;;;;;13.20;33.18;98399.44;4512208;31;32893;-83
2023/03/06 06:50:11;;;;;;;;;;;;;;;13.19;33.26;98392.53;4514569;31;34128;-83
2023/03/06 06:52:38;;;;;;;;;;;;;;;13.11;33.57;98395.19;4514571;31;34471;-81
2023/03/06 06:55:06;;;;;;;;;;;;;;;13.19;33.42;98402.06;4514790;31;34693;-83
2023/03/06 06:57:33;;;;;;;;;;;;;;;13.24;33.29;98402.91;4514898;31;33303;-83
2023/03/06 07:00:00;;;;;;;;;;;;;;;13.37;32.92;98404.50;4514226;31;34651;-83
2023/03/06 07:02:28;;;;;;;;;;;;;;;13.42;32.93;98407.94;4514131;31;34423;-84
2023/03/06 07:04:55;;;;;;;;;;;;;;;13.24;32.89;98405.50;4513916;31;34748;-83
2023/03/06 07:07:35;;;;;;;;;;;;;;;12.90;33.00;98406.66;4515058;31;34712;-82
2023/03/06 07:10:04;;;;;;;;;;;;;;;13.00;33.00;98406.59;4515071;31;33270;-82
2023/03/06 07:12:33;;;;;;;;;;;;;;;13.22;32.73;98410.72;4515027;31;33848;-82
2023/03/06 07:15:01;;;;;;;;;;;;;;;13.20;32.78;98412.44;4515001;31;33668;-83
2023/03/06 07:17:28;;;;;;;;;;;;;;;12.71;33.94;98419.84;4515179;31;33153;-82
2023/03/06 07:19:56;;;;;;;;;;;;;;;12.29;34.13;98420.12;4514745;31;34073;-83
2023/03/06 07:22:23;;;;;;;;;;;;;;;12.83;33.34;98432.72;4514030;31;34066;-83
2023/03/06 07:24:50;;;;;;;;;;;;;;;12.26;34.00;98432.25;4514593;31;34499;-83
2023/03/06 07:27:18;;;;;;;;;;;;;;;12.45;33.84;98433.88;4514877;31;33268;-83
2023/03/06 07:29:45;;;;;;;;;;;;;;;10.83;37.65;98434.38;4514644;31;33989;-83
2023/03/06 07:32:12;;;;;;;;;;;;;;;11.85;35.86;98426.41;4514508;31;34021;-83
2023/03/06 07:34:40;;;;;;;;;;;;;;;12.17;35.19;98428.84;4514173;31;33574;-81
2023/03/06 07:37:07;;;;;;;;;;;;;;;12.43;35.14;98430.44;4514780;31;33460;-83
2023/03/06 07:39:34;;;;;;;;;;;;;;;12.29;35.48;98427.91;4513911;31;34954;-84
2023/03/06 07:42:02;;;;;;;;;;;;;;;12.18;35.59;98425.38;4514542;31;35098;-83
2023/03/06 07:44:30;;;;;;;;;;;;;;;11.71;36.46;98422.13;4514806;31;34348;-84
2023/03/06 07:46:57;;;;;;;;;;;;;;;12.37;35.33;98428.72;4514915;31;33044;-84
2023/03/06 07:49:25;;;;;;;;;;;;;;;11.88;36.23;98428.97;4514377;31;34630;-84
2023/03/06 07:51:52;;;;;;;;;;;;;;;12.01;36.02;98435.00;4514474;31;33700;-83
2023/03/06 07:54:19;;;;;;;;;;;;;;;10.90;38.24;98434.38;4514504;31;34043;-85
2023/03/06 07:56:50;;;;;;;;;;;;;;;11.37;37.79;98433.47;4514491;31;33571;-83
2023/03/06 07:59:17;;;;;;;;;;;;;;;11.82;36.43;98430.69;4514243;31;34012;-83
2023/03/06 08:01:44;;;;;;;;;;;;;;;11.88;37.07;98436.78;4514367;31;34494;-84
2023/03/06 08:04:12;;;;;;;;;;;;;;;11.47;37.78;98442.06;4514306;31;35033;-85
2023/03/06 08:06:39;;;;;;;;;;;;;;;11.33;37.29;98443.84;4514243;31;33333;-84
2023/03/06 08:09:06;;;;;;;;;;;;;;;10.66;38.75;98453.37;4514316;31;33727;-85
2023/03/06 08:11:34;;;;;;;;;;;;;;;11.02;38.62;98456.84;4514318;31;34260;-84
2023/03/06 08:14:01;;;;;;;;;;;;;;;10.59;39.26;98451.66;4514174;31;34108;-85
2023/03/06 08:16:30;;;;;;;;;;;;;;;10.79;38.59;98448.19;4514388;31;33223;-85
2023/03/06 08:18:57;;;;;;;;;;;;;;;11.69;36.77;98440.28;4514180;31;35681;-84
2023/03/06 08:21:26;;;;;;;;;;;;;;;11.83;36.97;98437.66;4514003;31;34547;-84
2023/03/06 08:23:53;;;;;;;;;;;;;;;11.31;38.08;98433.47;4514423;31;34023;-83
2023/03/06 08:26:27;;;;;;;;;;;;;;;10.30;39.70;98442.94;4514371;31;33231;-84
2023/03/06 08:28:56;;;;;;;;;;;;;;;11.41;37.67;98431.72;4513919;31;34655;-84
2023/03/06 08:31:24;;;;;;;;;;;;;;;10.81;38.32;98429.19;4513675;31;34441;-83
2023/03/06 08:33:52;;;;;;;;;;;;;;;11.07;38.23;98436.97;4514188;31;34962;-84
2023/03/06 08:36:19;;;;;;;;;;;;;;;11.57;37.43;98423.00;4516147;31;33035;-84
2023/03/06 08:38:47;;;;;;;;;;;;;;;10.32;40.09;98420.50;4516026;31;35009;-83
2023/03/06 08:41:14;;;;;;;;;;;;;;;10.81;39.26;98430.94;4516029;31;34069;-82
2023/03/06 08:43:41;;;;;;;;;;;;;;;11.11;38.91;98433.50;4515957;31;34753;-84
2023/03/06 08:46:09;;;;;;;;;;;;;;;11.03;39.12;98424.00;4515997;31;33095;-84
2023/03/06 08:48:36;;;;;;;;;;;;;;;10.90;38.82;98425.72;4516031;31;34184;-85
2023/03/06 08:51:03;;;;;;;;;;;;;;;10.69;39.35;98430.06;4515982;31;35236;-83
2023/03/06 08:53:31;;;;;;;;;;;;;;;10.08;40.76;98429.06;4516065;31;33643;-83
2023/03/06 08:56:15;;;;;;;;;;;;;;;11.10;38.73;98434.38;4515883;31;32708;-85
2023/03/06 08:58:42;;;;;;;;;;;;;;;11.22;38.34;98424.84;4516087;31;34187;-84
2023/03/06 09:01:20;;;;;;;;;;;;;;;11.35;38.79;98416.16;4515631;31;35177;-85
2023/03/06 09:03:48;;;;;;;;;;;;;;;10.38;39.48;98421.41;4515940;31;33765;-83
2023/03/06 09:06:15;;;;;;;;;;;;;;;10.08;40.12;98426.47;4516208;31;34040;-84
2023/03/06 09:08:43;;;;;;;;;;;;;;;9.41;41.81;98414.13;4516066;31;33728;-84
2023/03/06 09:11:11;;;;;;;;;;;;;;;10.03;41.42;98410.91;4515941;31;35051;-84
2023/03/06 09:13:38;;;;;;;;;;;;;;;9.91;41.57;98418.63;4516100;31;34254;-84
2023/03/06 09:16:07;;;;;;;;;;;;;;;10.56;40.36;98411.91;4515642;31;34053;-85
2023/03/06 09:18:34;;;;;;;;;;;;;;;10.09;41.12;98413.53;4516143;31;34365;-82
2023/03/06 09:21:02;;;;;;;;;;;;;;;10.73;39.69;98406.72;4516074;31;34262;-84
2023/03/06 09:23:30;;;;;;;;;;;;;;;10.65;39.62;98405.00;4515828;31;34155;-83
2023/03/06 09:25:58;;;;;;;;;;;;;;;10.06;40.36;98410.91;4515800;31;33123;-84
2023/03/06 09:28:25;;;;;;;;;;;;;;;10.33;39.57;98401.50;4515811;31;33921;-84
2023/03/06 09:30:53;;;;;;;;;;;;;;;10.98;38.85;98394.59;4515492;31;33851;-84
2023/03/06 09:33:20;;;;;;;;;;;;;;;11.53;37.43;98387.56;4515651;31;35093;-83
2023/03/06 09:35:49;;;;;;;;;;;;;;;10.47;38.82;98392.03;4515738;31;33452;-83
2023/03/06 09:38:17;;;;;;;;;;;;;;;10.06;40.31;98400.56;4514188;31;34875;-84
2023/03/06 09:41:14;;;;;;;;;;;;;;;10.89;38.85;98398.06;4515542;31;35249;-84
2023/03/06 09:43:45;;;;;;;;;;;;;;;10.91;38.85;98388.53;4501719;31;34736;-82
2023/03/06 09:46:16;;;;;;;;;;;;;;;10.17;40.21;98392.81;4514857;31;33907;-84
2023/03/06 09:48:43;;;;;;;;;;;;;;;10.21;39.93;98391.97;4514103;31;34113;-82
2023/03/06 09:51:11;;;;;;;;;;;;;;;9.92;40.50;98394.47;4515586;31;34423;-84
2023/03/06 09:53:45;;;;;;;;;;;;;;;9.83;40.38;98384.09;4515627;31;34407;-84
2023/03/06 09:56:13;;;;;;;;;;;;;;;9.86;41.00;98389.28;4515609;31;32942;-85
2023/03/06 09:58:43;;;;;;;;;;;;;;;10.80;38.82;98385.13;4514087;31;34221;-82
2023/03/06 10:01:15;;;;;;;;;;;;;;;9.91;39.25;98382.41;4515864;31;35052;-84
2023/03/06 10:03:45;;;;;;;;;;;;;;;9.92;39.19;98377.22;4515828;31;33685;-83
2023/03/06 10:06:21;;;;;;;;;;;;;;;10.43;38.77;98373.03;4515617;31;33782;-84
2023/03/06 10:09:02;;;;;;;;;;;;;;;11.63;36.16;98360.69;4515830;31;33451;-83
2023/03/06 10:11:39;;;;;;;;;;;;;;;10.75;37.87;98363.50;4515625;31;35096;-82
2023/03/06 10:14:21;;;;;;;;;;;;;;;9.26;40.24;98376.97;4515430;31;33586;-82
2023/03/06 10:16:48;;;;;;;;;;;;;;;10.20;38.65;98380.75;4515477;31;34166;-84
2023/03/06 10:19:17;;;;;;;;;;;;;;;10.08;38.73;98380.72;4515180;31;34156;-84
2023/03/06 10:21:47;;;;;;;;;;;;;;;8.99;40.99;98376.81;4515281;31;35123;-83
2023/03/06 10:24:26;;;;;;;;;;;;;;;10.39;38.71;98375.63;4515236;31;34928;-82
2023/03/06 10:26:54;;;;;;;;;;;;;;;10.75;37.72;98373.88;4515329;31;34250;-83
2023/03/06 10:29:40;;;;;;;;;;;;;;;10.39;38.52;98375.63;4515224;31;34184;-82
2023/03/06 10:32:17;;;;;;;;;;;;;;;10.04;38.93;98368.63;4515216;31;35278;-84
2023/03/06 10:34:44;;;;;;;;;;;;;;;9.65;39.93;98370.22;4513968;31;33806;-83
2023/03/06 10:37:17;;;;;;;;;;;;;;;9.40;40.54;98368.41;4513915;31;33332;-84
2023/03/06 10:39:44;;;;;;;;;;;;;;;10.63;38.40;98370.44;4515119;31;33945;-83
2023/03/06 10:42:11;;;;;;;;;;;;;;;11.04;37.67;98356.56;4515188;31;34107;-85
2023/03/06 10:44:39;;;;;;;;;;;;;;;10.64;37.67;98355.72;4515101;31;34850;-84
2023/03/06 10:47:25;;;;;;;;;;;;;;;10.74;37.63;98344.50;4515367;31;34239;-84
2023/03/06 10:49:56;;;;;;;;;;;;;;;10.02;39.22;98349.63;4514984;31;34866;-84
2023/03/06 10:52:23;;;;;;;;;;;;;;;10.55;38.15;98341.06;4515310;31;34085;-83
2023/03/06 10:54:51;;;;;;;;;;;;;;;9.90;39.36;98339.25;4514032;31;34769;-83
2023/03/06 10:57:31;;;;;;;;;;;;;;;11.11;36.92;98324.53;4514655;31;33654;-84
2023/03/06 10:59:59;;;;;;;;;;;;;;;10.62;37.99;98322.06;4515153;31;34799;-83
2023/03/06 11:02:29;;;;;;;;;;;;;;;10.91;37.35;98315.94;4514808;31;35251;-82
2023/03/06 11:04:56;;;;;;;;;;;;;;;10.49;38.32;98309.94;4515141;31;33749;-84
2023/03/06 11:07:27;;;;;;;;;;;;;;;9.93;39.31;98315.97;4515082;31;33465;-84
2023/03/06 11:09:57;;;;;;;;;;;;;;;10.70;37.99;98304.75;4515150;31;34159;-83
2023/03/06 11:12:26;;;;;;;;;;;;;;;10.52;38.06;98299.59;4514817;31;34396;-83
2023/03/06 11:15:06;;;;;;;;;;;;;;;10.64;38.46;98285.75;4514811;31;35082;-82
2023/03/06 11:17:34;;;;;;;;;;;;;;;9.96;39.13;98292.63;4515176;31;33921;-83
2023/03/06 11:20:22;;;;;;;;;;;;;;;10.91;37.19;98277.94;4515288;31;34199;-84
2023/03/06 11:22:53;;;;;;;;;;;;;;;9.76;39.48;98284.84;4513781;31;34983;-84
2023/03/06 11:25:21;;;;;;;;;;;;;;;10.02;39.10;98277.13;4514692;31;33821;-82
2023/03/06 11:27:51;;;;;;;;;;;;;;;10.13;39.01;98270.22;4513411;31;33687;-84
2023/03/06 11:30:19;;;;;;;;;;;;;;;9.97;38.95;98271.09;4513585;31;34872;-84
2023/03/06 11:32:52;;;;;;;;;;;;;;;9.94;39.15;98255.53;4513494;31;34500;-84
2023/03/06 11:35:21;;;;;;;;;;;;;;;9.66;39.85;98245.16;4513611;31;34815;-85
2023/03/06 11:37:50;;;;;;;;;;;;;;;9.59;40.04;98235.66;4514872;31;33915;-82
2023/03/06 11:40:23;;;;;;;;;;;;;;;10.07;39.36;98217.56;4513004;31;33637;-82
2023/03/06 11:42:50;;;;;;;;;;;;;;;10.39;38.54;98215.84;4514851;31;34495;-83
2023/03/06 11:45:25;;;;;;;;;;;;;;;10.67;38.04;98206.25;4514686;31;34311;-83
2023/03/06 11:47:57;;;;;;;;;;;;;;;10.26;38.34;98205.47;4513532;31;33406;-84
2023/03/06 11:50:27;;;;;;;;;;;;;;;11.07;37.43;98200.06;4514610;31;34240;-83
2023/03/06 11:53:04;;;;;;;;;;;;;;;9.82;39.15;98201.19;4514720;31;34516;-84
2023/03/06 11:55:34;;;;;;;;;;;;;;;9.72;40.11;98203.75;4513192;31;33695;-84
2023/03/06 11:58:02;;;;;;;;;;;;;;;10.46;38.31;98189.03;4514662;31;34215;-84
2023/03/06 12:00:48;;;;;;;;;;;;;;;9.45;39.78;98188.19;4514225;31;34126;-85
2023/03/06 12:03:31;;;;;;;;;;;;;;;9.74;40.16;98189.09;4514400;31;35356;-83
2023/03/06 12:06:09;;;;;;;;;;;;;;;10.43;39.21;98177.81;4513296;31;34446;-83
2023/03/06 12:08:51;;;;;;;;;;;;;;;10.96;38.11;98181.97;4512929;31;33425;-82
2023/03/06 12:11:18;;;;;;;;;;;;;;;11.41;37.33;98172.19;4514971;31;34190;-83
2023/03/06 12:14:04;;;;;;;;;;;;;;;10.81;38.42;98166.47;4516395;31;34406;-82
2023/03/06 12:16:50;;;;;;;;;;;;;;;11.50;37.05;98164.34;4516345;31;34206;-84
2023/03/06 12:19:24;;;;;;;;;;;;;;;11.86;36.15;98168.44;4516190;31;33103;-84
2023/03/06 12:22:01;;;;;;;;;;;;;;;11.68;36.21;98164.22;4515030;31;33951;-83
2023/03/06 12:24:41;;;;;;;;;;;;;;;11.67;36.47;98161.63;4516011;31;34293;-82
2023/03/06 12:27:17;;;;;;;;;;;;;;;11.85;35.71;98153.69;4516320;31;34839;-83
2023/03/06 12:30:03;;;;;;;;;;;;;;;12.18;35.05;98147.34;4516210;31;33202;-84
2023/03/06 12:32:49;;;;;;;;;;;;;;;11.67;35.04;98153.84;4516194;31;35034;-83
2023/03/06 12:35:17;;;;;;;;;;;;;;;11.15;35.94;98152.44;4516499;31;35113;-84
2023/03/06 12:37:53;;;;;;;;;;;;;;;11.83;34.35;98146.78;4516214;31;34115;-84
2023/03/06 12:40:32;;;;;;;;;;;;;;;12.34;33.71;98149.78;4516064;31;33239;-84
2023/03/06 12:42:59;;;;;;;;;;;;;;;11.08;35.74;98153.34;4515469;31;33382;-84
2023/03/06 12:45:33;;;;;;;;;;;;;;;11.12;35.79;98143.81;4516237;31;34502;-82
2023/03/06 12:48:00;;;;;;;;;;;;;;;11.60;35.25;98145.22;4516091;31;33946;-82
2023/03/06 12:50:29;;;;;;;;;;;;;;;10.98;35.52;98145.62;4516069;31;33309;-85
2023/03/06 12:52:57;;;;;;;;;;;;;;;11.92;34.24;98129.41;4515751;31;34542;-84
2023/03/06 12:55:24;;;;;;;;;;;;;;;11.56;34.64;98121.91;4514714;31;34836;-84
2023/03/06 12:57:52;;;;;;;;;;;;;;;11.57;34.95;98129.69;4515886;31;34786;-84